sensor_id;sensor_type;location;lat;lon;timestamp;pressure;altitude;pressure_sealevel;temperature;humidity
45872;BME280;32333;55.844;-3.210;2023-01-27T00:01:50;101473.33;;;2.81;100.00
45872;BME280;32333;55.844;-3.210;2023-01-27T00:04:17;101471.63;;;1.76;100.00
45872;BME280;32333;55.844;-3.210;2023-01-27T00:06:45;101469.34;;;2.42;100.00
45872;BME280;32333;55.844;-3.210;2023-01-27T00:09:14;101470.41;;;3.11;100.00
45872;BME280;32333;55.844;-3.210;2023-01-27T00:11:42;101465.71;;;2.80;100.00
45872;BME280;32333;55.844;-3.210;2023-01-27T00:14:36;101461.47;;;3.38;100.00
45872;BME280;32333;55.844;-3.210;2023-01-27T00:17:04;101457.31;;;2.74;100.00
45872;BME280;32333;55.844;-3.210;2023-01-27T00:19:32;101454.47;;;2.29;100.00
45872;BME280;32333;55.844;-3.210;2023-01-27T00:22:00;101448.91;;;2.83;100.00
45872;BME280;32333;55.844;-3.210;2023-01-27T00:24:28;101443.44;;;2.12;100.00
45872;BME280;32333;55.844;-3.210;2023-01-27T00:26:55;101440.26;;;2.32;100.00
45872;BME280;32333;55.844;-3.210;2023-01-27T00:29:24;101442.47;;;1.96;100.00
45872;BME280;32333;55.844;-3.210;2023-01-27T00:31:51;101440.29;;;1.92;100.00
45872;BME280;32333;55.844;-3.210;2023-01-27T00:34:19;101430.74;;;2.35;100.00
45872;BME280;32333;55.844;-3.210;2023-01-27T00:36:47;101427.09;;;2.00;100.00
45872;BME280;32333;55.844;-3.210;2023-01-27T00:39:14;101427.33;;;1.33;100.00
45872;BME280;32333;55.844;-3.210;2023-01-27T00:41:42;101432.84;;;1.21;100.00
45872;BME280;32333;55.844;-3.210;2023-01-27T00:44:36;101424.05;;;2.99;100.00
45872;BME280;32333;55.844;-3.210;2023-01-27T00:47:03;101427.29;;;0.87;100.00
45872;BME280;32333;55.844;-3.210;2023-01-27T00:49:31;101425.73;;;0.46;100.00
45872;BME280;32333;55.844;-3.210;2023-01-27T00:52:00;101420.99;;;1.24;100.00
45872;BME280;32333;55.844;-3.210;2023-01-27T00:54:27;101416.33;;;1.56;100.00
45872;BME280;32333;55.844;-3.210;2023-01-27T00:56:55;101415.90;;;0.77;100.00
45872;BME280;32333;55.844;-3.210;2023-01-27T00:59:22;101416.29;;;0.76;100.00
45872;BME280;32333;55.844;-3.210;2023-01-27T01:01:51;101420.28;;;1.32;100.00
45872;BME280;32333;55.844;-3.210;2023-01-27T01:04:18;101421.28;;;1.17;100.00
45872;BME280;32333;55.844;-3.210;2023-01-27T01:06:46;101416.19;;;1.24;100.00
45872;BME280;32333;55.844;-3.210;2023-01-27T01:09:14;101416.33;;;1.20;100.00
45872;BME280;32333;55.844;-3.210;2023-01-27T01:11:41;101410.17;;;1.17;100.00
45872;BME280;32333;55.844;-3.210;2023-01-27T01:14:35;101408.92;;;0.51;100.00
45872;BME280;32333;55.844;-3.210;2023-01-27T01:17:03;101405.01;;;0.25;100.00
45872;BME280;32333;55.844;-3.210;2023-01-27T01:19:30;101400.67;;;-0.95;100.00
45872;BME280;32333;55.844;-3.210;2023-01-27T01:21:59;101402.68;;;1.21;100.00
45872;BME280;32333;55.844;-3.210;2023-01-27T01:24:27;101397.67;;;1.37;100.00
45872;BME280;32333;55.844;-3.210;2023-01-27T01:26:54;101394.53;;;1.29;100.00
45872;BME280;32333;55.844;-3.210;2023-01-27T01:29:22;101390.54;;;0.25;100.00
45872;BME280;32333;55.844;-3.210;2023-01-27T01:31:50;101381.10;;;1.65;100.00
45872;BME280;32333;55.844;-3.210;2023-01-27T01:34:18;101364.55;;;2.30;100.00
45872;BME280;32333;55.844;-3.210;2023-01-27T01:36:45;101368.19;;;0.69;100.00
45872;BME280;32333;55.844;-3.210;2023-01-27T01:39:13;101368.44;;;0.83;100.00
45872;BME280;32333;55.844;-3.210;2023-01-27T01:41:41;101365.25;;;0.72;100.00
45872;BME280;32333;55.844;-3.210;2023-01-27T01:44:34;101362.84;;;-0.01;100.00
45872;BME280;32333;55.844;-3.210;2023-01-27T01:47:02;101365.54;;;0.49;100.00
45872;BME280;32333;55.844;-3.210;2023-01-27T01:49:33;101365.60;;;0.42;100.00
45872;BME280;32333;55.844;-3.210;2023-01-27T01:52:07;101362.23;;;0.16;100.00
45872;BME280;32333;55.844;-3.210;2023-01-27T01:54:39;101355.83;;;-0.79;100.00
45872;BME280;32333;55.844;-3.210;2023-01-27T01:57:09;101356.79;;;0.25;100.00
45872;BME280;32333;55.844;-3.210;2023-01-27T01:59:41;101351.37;;;-0.21;100.00
45872;BME280;32333;55.844;-3.210;2023-01-27T02:02:13;101354.93;;;-0.18;100.00
45872;BME280;32333;55.844;-3.210;2023-01-27T02:04:45;101346.46;;;-0.72;100.00
45872;BME280;32333;55.844;-3.210;2023-01-27T02:07:18;101340.87;;;-0.02;100.00
45872;BME280;32333;55.844;-3.210;2023-01-27T02:09:47;101341.06;;;0.23;100.00
45872;BME280;32333;55.844;-3.210;2023-01-27T02:14:35;101342.38;;;-0.08;100.00
45872;BME280;32333;55.844;-3.210;2023-01-27T02:17:04;101341.48;;;1.00;100.00
45872;BME280;32333;55.844;-3.210;2023-01-27T02:19:39;101345.35;;;0.58;100.00
45872;BME280;32333;55.844;-3.210;2023-01-27T02:22:13;101344.75;;;-0.71;100.00
45872;BME280;32333;55.844;-3.210;2023-01-27T02:24:51;101341.00;;;-0.30;100.00
45872;BME280;32333;55.844;-3.210;2023-01-27T02:27:22;101341.73;;;-0.22;100.00
45872;BME280;32333;55.844;-3.210;2023-01-27T02:29:49;101338.53;;;-0.46;100.00
45872;BME280;32333;55.844;-3.210;2023-01-27T02:32:22;101341.30;;;-0.05;100.00
45872;BME280;32333;55.844;-3.210;2023-01-27T02:34:51;101336.24;;;-1.25;100.00
45872;BME280;32333;55.844;-3.210;2023-01-27T02:37:20;101338.11;;;-0.88;100.00
45872;BME280;32333;55.844;-3.210;2023-01-27T02:39:50;101342.24;;;-1.07;100.00
45872;BME280;32333;55.844;-3.210;2023-01-27T02:44:36;101332.19;;;-0.30;100.00
45872;BME280;32333;55.844;-3.210;2023-01-27T02:47:04;101332.09;;;-0.59;100.00
45872;BME280;32333;55.844;-3.210;2023-01-27T02:49:31;101328.17;;;-0.34;100.00
45872;BME280;32333;55.844;-3.210;2023-01-27T02:52:00;101328.16;;;-1.83;100.00
45872;BME280;32333;55.844;-3.210;2023-01-27T02:54:29;101328.86;;;-0.79;100.00
45872;BME280;32333;55.844;-3.210;2023-01-27T02:56:56;101325.14;;;-1.54;100.00
45872;BME280;32333;55.844;-3.210;2023-01-27T02:59:25;101325.80;;;-1.64;100.00
45872;BME280;32333;55.844;-3.210;2023-01-27T03:01:53;101321.51;;;-1.12;100.00
45872;BME280;32333;55.844;-3.210;2023-01-27T03:04:27;101324.94;;;-0.99;100.00
45872;BME280;32333;55.844;-3.210;2023-01-27T03:06:54;101322.98;;;-1.69;100.00
45872;BME280;32333;55.844;-3.210;2023-01-27T03:09:21;101322.79;;;-0.24;100.00
45872;BME280;32333;55.844;-3.210;2023-01-27T03:11:49;101320.76;;;-1.00;100.00
45872;BME280;32333;55.844;-3.210;2023-01-27T03:14:36;101317.94;;;-0.91;100.00
45872;BME280;32333;55.844;-3.210;2023-01-27T03:17:04;101307.53;;;-0.39;100.00
45872;BME280;32333;55.844;-3.210;2023-01-27T03:19:32;101309.48;;;-0.17;100.00
45872;BME280;32333;55.844;-3.210;2023-01-27T03:22:01;101304.66;;;-0.26;100.00
45872;BME280;32333;55.844;-3.210;2023-01-27T03:24:29;101306.78;;;-0.75;100.00
45872;BME280;32333;55.844;-3.210;2023-01-27T03:26:56;101304.00;;;-0.16;100.00
45872;BME280;32333;55.844;-3.210;2023-01-27T03:29:25;101296.81;;;-0.37;100.00
45872;BME280;32333;55.844;-3.210;2023-01-27T03:31:53;101298.84;;;-0.96;100.00
45872;BME280;32333;55.844;-3.210;2023-01-27T03:34:21;101295.11;;;-0.10;100.00
45872;BME280;32333;55.844;-3.210;2023-01-27T03:36:48;101296.06;;;-1.03;100.00
45872;BME280;32333;55.844;-3.210;2023-01-27T03:39:16;101300.48;;;-1.63;100.00
45872;BME280;32333;55.844;-3.210;2023-01-27T03:41:44;101303.68;;;-0.62;100.00
45872;BME280;32333;55.844;-3.210;2023-01-27T03:44:35;101302.73;;;-0.42;100.00
45872;BME280;32333;55.844;-3.210;2023-01-27T03:47:03;101302.05;;;-1.51;100.00
45872;BME280;32333;55.844;-3.210;2023-01-27T03:49:31;101298.39;;;-1.95;100.00
45872;BME280;32333;55.844;-3.210;2023-01-27T03:51:58;101295.45;;;-1.66;100.00
45872;BME280;32333;55.844;-3.210;2023-01-27T03:54:27;101293.65;;;-1.10;100.00
45872;BME280;32333;55.844;-3.210;2023-01-27T03:56:55;101290.54;;;-0.53;100.00
45872;BME280;32333;55.844;-3.210;2023-01-27T03:59:23;101291.80;;;-0.03;100.00
45872;BME280;32333;55.844;-3.210;2023-01-27T04:01:51;101293.83;;;0.47;100.00
45872;BME280;32333;55.844;-3.210;2023-01-27T04:04:19;101287.99;;;-0.54;100.00
45872;BME280;32333;55.844;-3.210;2023-01-27T04:06:46;101286.61;;;0.09;100.00
45872;BME280;32333;55.844;-3.210;2023-01-27T04:09:19;101285.41;;;-0.96;100.00
45872;BME280;32333;55.844;-3.210;2023-01-27T04:11:47;101282.30;;;-0.50;100.00
45872;BME280;32333;55.844;-3.210;2023-01-27T04:14:37;101280.74;;;-0.26;100.00
45872;BME280;32333;55.844;-3.210;2023-01-27T04:17:08;101278.87;;;-1.24;100.00
45872;BME280;32333;55.844;-3.210;2023-01-27T04:19:37;101279.77;;;-1.78;100.00
45872;BME280;32333;55.844;-3.210;2023-01-27T04:22:06;101277.55;;;-1.73;100.00
45872;BME280;32333;55.844;-3.210;2023-01-27T04:24:34;101281.10;;;-1.75;100.00
45872;BME280;32333;55.844;-3.210;2023-01-27T04:27:03;101284.88;;;-2.24;100.00
45872;BME280;32333;55.844;-3.210;2023-01-27T04:29:33;101285.72;;;-2.22;100.00
45872;BME280;32333;55.844;-3.210;2023-01-27T04:32:01;101283.58;;;-1.20;100.00
45872;BME280;32333;55.844;-3.210;2023-01-27T04:34:29;101278.73;;;-1.72;100.00
45872;BME280;32333;55.844;-3.210;2023-01-27T04:36:57;101279.42;;;-1.52;100.00
45872;BME280;32333;55.844;-3.210;2023-01-27T04:39:25;101278.84;;;-1.59;100.00
45872;BME280;32333;55.844;-3.210;2023-01-27T04:41:54;101278.61;;;-1.07;100.00
45872;BME280;32333;55.844;-3.210;2023-01-27T04:44:34;101277.24;;;-2.02;100.00
45872;BME280;32333;55.844;-3.210;2023-01-27T04:47:01;101280.66;;;-1.39;100.00
45872;BME280;32333;55.844;-3.210;2023-01-27T04:49:29;101282.64;;;-1.71;100.00
45872;BME280;32333;55.844;-3.210;2023-01-27T04:51:57;101286.77;;;-1.98;100.00
45872;BME280;32333;55.844;-3.210;2023-01-27T04:54:25;101282.73;;;-2.59;100.00
45872;BME280;32333;55.844;-3.210;2023-01-27T04:56:55;101277.46;;;-2.13;100.00
45872;BME280;32333;55.844;-3.210;2023-01-27T04:59:23;101277.58;;;-2.41;100.00
45872;BME280;32333;55.844;-3.210;2023-01-27T05:01:51;101276.42;;;-1.73;100.00
45872;BME280;32333;55.844;-3.210;2023-01-27T05:04:19;101276.51;;;-1.67;100.00
45872;BME280;32333;55.844;-3.210;2023-01-27T05:06:46;101273.65;;;-1.70;100.00
45872;BME280;32333;55.844;-3.210;2023-01-27T05:09:13;101270.14;;;-2.69;100.00
45872;BME280;32333;55.844;-3.210;2023-01-27T05:11:41;101269.28;;;-2.41;100.00
45872;BME280;32333;55.844;-3.210;2023-01-27T05:14:35;101268.45;;;-2.21;100.00
45872;BME280;32333;55.844;-3.210;2023-01-27T05:17:03;101268.58;;;-1.86;100.00
45872;BME280;32333;55.844;-3.210;2023-01-27T05:19:30;101266.49;;;-1.59;100.00
45872;BME280;32333;55.844;-3.210;2023-01-27T05:21:58;101267.51;;;-1.94;100.00
45872;BME280;32333;55.844;-3.210;2023-01-27T05:24:25;101268.35;;;-1.10;100.00
45872;BME280;32333;55.844;-3.210;2023-01-27T05:26:53;101270.02;;;-1.71;100.00
45872;BME280;32333;55.844;-3.210;2023-01-27T05:29:21;101275.67;;;-1.74;100.00
45872;BME280;32333;55.844;-3.210;2023-01-27T05:31:48;101282.38;;;-2.01;100.00
45872;BME280;32333;55.844;-3.210;2023-01-27T05:34:17;101282.66;;;-2.58;100.00
45872;BME280;32333;55.844;-3.210;2023-01-27T05:36:45;101282.32;;;-2.08;100.00
45872;BME280;32333;55.844;-3.210;2023-01-27T05:39:12;101286.51;;;-1.37;100.00
45872;BME280;32333;55.844;-3.210;2023-01-27T05:41:40;101288.56;;;-2.21;100.00
45872;BME280;32333;55.844;-3.210;2023-01-27T05:44:35;101285.03;;;-2.46;100.00
45872;BME280;32333;55.844;-3.210;2023-01-27T05:47:03;101279.53;;;-0.87;100.00
45872;BME280;32333;55.844;-3.210;2023-01-27T05:49:32;101276.13;;;-0.82;100.00
45872;BME280;32333;55.844;-3.210;2023-01-27T05:52:00;101278.30;;;-0.89;100.00
45872;BME280;32333;55.844;-3.210;2023-01-27T05:54:28;101274.70;;;-1.12;100.00
45872;BME280;32333;55.844;-3.210;2023-01-27T05:56:56;101272.19;;;-1.47;100.00
45872;BME280;32333;55.844;-3.210;2023-01-27T05:59:23;101271.46;;;-1.38;100.00
45872;BME280;32333;55.844;-3.210;2023-01-27T06:01:52;101270.77;;;-1.92;100.00
45872;BME280;32333;55.844;-3.210;2023-01-27T06:04:20;101270.06;;;-2.27;100.00
45872;BME280;32333;55.844;-3.210;2023-01-27T06:06:47;101262.37;;;-2.74;100.00
45872;BME280;32333;55.844;-3.210;2023-01-27T06:09:16;101257.48;;;-2.10;100.00
45872;BME280;32333;55.844;-3.210;2023-01-27T06:11:44;101257.09;;;-2.56;100.00
45872;BME280;32333;55.844;-3.210;2023-01-27T06:14:35;101259.64;;;-2.95;100.00
45872;BME280;32333;55.844;-3.210;2023-01-27T06:17:03;101260.70;;;-1.53;100.00
45872;BME280;32333;55.844;-3.210;2023-01-27T06:19:31;101260.32;;;-2.52;100.00
45872;BME280;32333;55.844;-3.210;2023-01-27T06:21:58;101261.44;;;-2.79;100.00
45872;BME280;32333;55.844;-3.210;2023-01-27T06:24:27;101261.04;;;-2.48;100.00
45872;BME280;32333;55.844;-3.210;2023-01-27T06:26:55;101253.57;;;-2.62;100.00
45872;BME280;32333;55.844;-3.210;2023-01-27T06:29:22;101257.17;;;-2.97;100.00
45872;BME280;32333;55.844;-3.210;2023-01-27T06:31:50;101257.29;;;-2.43;100.00
45872;BME280;32333;55.844;-3.210;2023-01-27T06:34:18;101255.03;;;-2.51;100.00
45872;BME280;32333;55.844;-3.210;2023-01-27T06:36:46;101253.06;;;-2.95;100.00
45872;BME280;32333;55.844;-3.210;2023-01-27T06:39:13;101247.53;;;-2.68;100.00
45872;BME280;32333;55.844;-3.210;2023-01-27T06:41:42;101244.74;;;-2.87;100.00
45872;BME280;32333;55.844;-3.210;2023-01-27T06:44:36;101243.65;;;-2.64;100.00
45872;BME280;32333;55.844;-3.210;2023-01-27T06:47:03;101239.96;;;-3.10;100.00
45872;BME280;32333;55.844;-3.210;2023-01-27T06:49:31;101237.83;;;-2.85;100.00
45872;BME280;32333;55.844;-3.210;2023-01-27T06:51:59;101241.27;;;-3.24;100.00
45872;BME280;32333;55.844;-3.210;2023-01-27T06:54:26;101234.75;;;-2.89;100.00
45872;BME280;32333;55.844;-3.210;2023-01-27T06:56:54;101230.54;;;-2.88;100.00
45872;BME280;32333;55.844;-3.210;2023-01-27T06:59:22;101230.92;;;-2.98;100.00
45872;BME280;32333;55.844;-3.210;2023-01-27T07:01:49;101232.70;;;-2.43;100.00
45872;BME280;32333;55.844;-3.210;2023-01-27T07:04:17;101241.78;;;-2.99;100.00
45872;BME280;32333;55.844;-3.210;2023-01-27T07:06:45;101240.99;;;-2.53;100.00
45872;BME280;32333;55.844;-3.210;2023-01-27T07:09:12;101241.15;;;-2.82;100.00
45872;BME280;32333;55.844;-3.210;2023-01-27T07:11:41;101237.83;;;-3.15;100.00
45872;BME280;32333;55.844;-3.210;2023-01-27T07:14:35;101237.64;;;-3.00;100.00
45872;BME280;32333;55.844;-3.210;2023-01-27T07:17:04;101243.39;;;-2.78;100.00
45872;BME280;32333;55.844;-3.210;2023-01-27T07:19:31;101245.44;;;-2.97;100.00
45872;BME280;32333;55.844;-3.210;2023-01-27T07:21:59;101244.12;;;-3.01;100.00
45872;BME280;32333;55.844;-3.210;2023-01-27T07:24:27;101239.03;;;-2.74;100.00
45872;BME280;32333;55.844;-3.210;2023-01-27T07:26:55;101236.06;;;-2.92;100.00
45872;BME280;32333;55.844;-3.210;2023-01-27T07:29:23;101231.03;;;-3.29;100.00
45872;BME280;32333;55.844;-3.210;2023-01-27T07:31:51;101233.17;;;-2.82;100.00
45872;BME280;32333;55.844;-3.210;2023-01-27T07:34:19;101231.60;;;-3.09;100.00
45872;BME280;32333;55.844;-3.210;2023-01-27T07:36:47;101227.45;;;-2.79;100.00
45872;BME280;32333;55.844;-3.210;2023-01-27T07:39:14;101221.70;;;-2.73;100.00
45872;BME280;32333;55.844;-3.210;2023-01-27T07:41:42;101222.08;;;-1.97;100.00
45872;BME280;32333;55.844;-3.210;2023-01-27T07:44:35;101223.14;;;-1.89;100.00
45872;BME280;32333;55.844;-3.210;2023-01-27T07:47:03;101223.20;;;-1.84;100.00
45872;BME280;32333;55.844;-3.210;2023-01-27T07:49:31;101223.50;;;-2.43;100.00
45872;BME280;32333;55.844;-3.210;2023-01-27T07:52:00;101224.48;;;-2.48;100.00
45872;BME280;32333;55.844;-3.210;2023-01-27T07:54:27;101217.92;;;-2.42;100.00
45872;BME280;32333;55.844;-3.210;2023-01-27T07:56:55;101218.06;;;-1.94;100.00
45872;BME280;32333;55.844;-3.210;2023-01-27T07:59:26;101223.73;;;-2.40;100.00
45872;BME280;32333;55.844;-3.210;2023-01-27T08:01:53;101225.20;;;-2.46;100.00
45872;BME280;32333;55.844;-3.210;2023-01-27T08:04:21;101225.51;;;-2.47;100.00
45872;BME280;32333;55.844;-3.210;2023-01-27T08:06:50;101226.99;;;-2.90;100.00
45872;BME280;32333;55.844;-3.210;2023-01-27T08:09:17;101220.95;;;-1.83;100.00
45872;BME280;32333;55.844;-3.210;2023-01-27T08:11:45;101217.91;;;-1.87;100.00
45872;BME280;32333;55.844;-3.210;2023-01-27T08:14:35;101224.20;;;-2.40;100.00
45872;BME280;32333;55.844;-3.210;2023-01-27T08:17:03;101224.38;;;-2.77;100.00
45872;BME280;32333;55.844;-3.210;2023-01-27T08:19:31;101216.33;;;-2.85;100.00
45872;BME280;32333;55.844;-3.210;2023-01-27T08:21:58;101211.94;;;-2.74;100.00
45872;BME280;32333;55.844;-3.210;2023-01-27T08:24:27;101207.43;;;-2.91;100.00
45872;BME280;32333;55.844;-3.210;2023-01-27T08:26:55;101212.32;;;-3.19;100.00
45872;BME280;32333;55.844;-3.210;2023-01-27T08:29:22;101203.56;;;-3.34;100.00
45872;BME280;32333;55.844;-3.210;2023-01-27T08:31:51;101198.08;;;-2.61;100.00
45872;BME280;32333;55.844;-3.210;2023-01-27T08:34:19;101196.83;;;-2.57;100.00
45872;BME280;32333;55.844;-3.210;2023-01-27T08:36:47;101198.24;;;-2.99;100.00
45872;BME280;32333;55.844;-3.210;2023-01-27T08:39:14;101195.96;;;-2.10;100.00
45872;BME280;32333;55.844;-3.210;2023-01-27T08:41:43;101205.68;;;-2.42;100.00
45872;BME280;32333;55.844;-3.210;2023-01-27T08:44:36;101211.48;;;-1.97;100.00
45872;BME280;32333;55.844;-3.210;2023-01-27T08:47:03;101208.67;;;-1.49;100.00
45872;BME280;32333;55.844;-3.210;2023-01-27T08:49:31;101204.83;;;-1.79;100.00
45872;BME280;32333;55.844;-3.210;2023-01-27T08:52:00;101202.47;;;-1.23;100.00
45872;BME280;32333;55.844;-3.210;2023-01-27T08:54:27;101200.52;;;-1.47;100.00
45872;BME280;32333;55.844;-3.210;2023-01-27T08:56:55;101199.30;;;-0.49;100.00
45872;BME280;32333;55.844;-3.210;2023-01-27T08:59:22;101194.89;;;-1.65;100.00
45872;BME280;32333;55.844;-3.210;2023-01-27T09:01:51;101188.49;;;-1.09;100.00
45872;BME280;32333;55.844;-3.210;2023-01-27T09:04:20;101186.29;;;-0.74;100.00
45872;BME280;32333;55.844;-3.210;2023-01-27T09:06:48;101183.79;;;-0.16;100.00
45872;BME280;32333;55.844;-3.210;2023-01-27T09:09:16;101180.46;;;-1.73;100.00
45872;BME280;32333;55.844;-3.210;2023-01-27T09:11:44;101178.66;;;-1.68;100.00
45872;BME280;32333;55.844;-3.210;2023-01-27T09:14:36;101176.88;;;-1.22;100.00
45872;BME280;32333;55.844;-3.210;2023-01-27T09:17:04;101173.53;;;-0.64;100.00
45872;BME280;32333;55.844;-3.210;2023-01-27T09:19:32;101171.67;;;-1.10;100.00
45872;BME280;32333;55.844;-3.210;2023-01-27T09:22:01;101170.20;;;-0.46;100.00
45872;BME280;32333;55.844;-3.210;2023-01-27T09:24:28;101168.38;;;0.13;100.00
45872;BME280;32333;55.844;-3.210;2023-01-27T09:26:55;101171.34;;;-0.19;100.00
45872;BME280;32333;55.844;-3.210;2023-01-27T09:29:24;101167.07;;;-0.35;100.00
45872;BME280;32333;55.844;-3.210;2023-01-27T09:31:52;101168.60;;;-0.35;100.00
45872;BME280;32333;55.844;-3.210;2023-01-27T09:34:20;101174.28;;;0.12;100.00
45872;BME280;32333;55.844;-3.210;2023-01-27T09:36:50;101176.37;;;-0.39;100.00
45872;BME280;32333;55.844;-3.210;2023-01-27T09:39:21;101179.71;;;-0.08;100.00
45872;BME280;32333;55.844;-3.210;2023-01-27T09:45:21;101191.71;;;1.18;100.00
45872;BME280;32333;55.844;-3.210;2023-01-27T09:48:12;101185.91;;;0.90;100.00
45872;BME280;32333;55.844;-3.210;2023-01-27T09:50:48;101184.13;;;0.07;100.00
45872;BME280;32333;55.844;-3.210;2023-01-27T09:53:34;101175.16;;;0.96;100.00
45872;BME280;32333;55.844;-3.210;2023-01-27T09:56:08;101175.41;;;0.01;100.00
45872;BME280;32333;55.844;-3.210;2023-01-27T09:58:51;101168.84;;;0.43;100.00
45872;BME280;32333;55.844;-3.210;2023-01-27T10:01:28;101163.86;;;1.37;100.00
45872;BME280;32333;55.844;-3.210;2023-01-27T10:04:16;101165.34;;;0.66;100.00
45872;BME280;32333;55.844;-3.210;2023-01-27T10:06:59;101161.51;;;0.46;100.00
45872;BME280;32333;55.844;-3.210;2023-01-27T10:10:36;101160.67;;;0.23;100.00
45872;BME280;32333;55.844;-3.210;2023-01-27T10:14:42;101154.57;;;0.65;100.00
45872;BME280;32333;55.844;-3.210;2023-01-27T10:17:24;101158.21;;;0.08;100.00
45872;BME280;32333;55.844;-3.210;2023-01-27T10:20:08;101156.04;;;0.17;100.00
45872;BME280;32333;55.844;-3.210;2023-01-27T10:22:47;101156.86;;;0.18;100.00
45872;BME280;32333;55.844;-3.210;2023-01-27T10:25:27;101155.23;;;-0.34;100.00
45872;BME280;32333;55.844;-3.210;2023-01-27T10:27:58;101155.77;;;0.07;100.00
45872;BME280;32333;55.844;-3.210;2023-01-27T10:30:33;101151.69;;;0.31;100.00
45872;BME280;32333;55.844;-3.210;2023-01-27T10:33:11;101146.89;;;0.19;100.00
45872;BME280;32333;55.844;-3.210;2023-01-27T10:35:50;101144.31;;;0.63;100.00
45872;BME280;32333;55.844;-3.210;2023-01-27T10:38:27;101134.09;;;-0.18;100.00
45872;BME280;32333;55.844;-3.210;2023-01-27T10:41:06;101131.45;;;0.28;100.00
45872;BME280;32333;55.844;-3.210;2023-01-27T10:44:59;101126.04;;;0.64;100.00
45872;BME280;32333;55.844;-3.210;2023-01-27T10:47:38;101128.46;;;0.45;100.00
45872;BME280;32333;55.844;-3.210;2023-01-27T10:50:12;101129.04;;;0.98;100.00
45872;BME280;32333;55.844;-3.210;2023-01-27T10:52:46;101131.87;;;0.77;100.00
45872;BME280;32333;55.844;-3.210;2023-01-27T10:55:18;101131.57;;;0.49;100.00
45872;BME280;32333;55.844;-3.210;2023-01-27T10:57:54;101132.23;;;0.54;100.00
45872;BME280;32333;55.844;-3.210;2023-01-27T11:00:29;101130.33;;;0.71;100.00
45872;BME280;32333;55.844;-3.210;2023-01-27T11:03:06;101123.11;;;0.98;100.00
45872;BME280;32333;55.844;-3.210;2023-01-27T11:05:38;101119.83;;;1.21;100.00
45872;BME280;32333;55.844;-3.210;2023-01-27T11:08:12;101113.67;;;1.91;100.00
45872;BME280;32333;55.844;-3.210;2023-01-27T11:10:45;101112.32;;;1.20;100.00
45872;BME280;32333;55.844;-3.210;2023-01-27T11:14:43;101114.23;;;1.35;100.00
45872;BME280;32333;55.844;-3.210;2023-01-27T11:17:16;101116.03;;;0.90;100.00
45872;BME280;32333;55.844;-3.210;2023-01-27T11:19:55;101112.96;;;1.51;100.00
45872;BME280;32333;55.844;-3.210;2023-01-27T11:22:31;101106.11;;;1.65;100.00
45872;BME280;32333;55.844;-3.210;2023-01-27T11:25:06;101102.36;;;1.23;100.00
45872;BME280;32333;55.844;-3.210;2023-01-27T11:27:56;101101.02;;;0.69;100.00
45872;BME280;32333;55.844;-3.210;2023-01-27T11:30:32;101094.01;;;1.24;100.00
45872;BME280;32333;55.844;-3.210;2023-01-27T11:33:05;101086.80;;;0.54;100.00
45872;BME280;32333;55.844;-3.210;2023-01-27T11:35:36;101080.89;;;0.52;100.00
45872;BME280;32333;55.844;-3.210;2023-01-27T11:38:06;101079.17;;;0.92;100.00
45872;BME280;32333;55.844;-3.210;2023-01-27T11:40:39;101080.22;;;0.73;100.00
45872;BME280;32333;55.844;-3.210;2023-01-27T11:44:36;101078.32;;;0.44;100.00
45872;BME280;32333;55.844;-3.210;2023-01-27T11:47:05;101076.36;;;1.02;100.00
45872;BME280;32333;55.844;-3.210;2023-01-27T11:49:40;101077.13;;;1.34;100.00
45872;BME280;32333;55.844;-3.210;2023-01-27T11:52:12;101064.46;;;1.33;100.00
45872;BME280;32333;55.844;-3.210;2023-01-27T11:54:45;101058.01;;;1.07;100.00
45872;BME280;32333;55.844;-3.210;2023-01-27T11:57:18;101057.09;;;0.97;100.00
45872;BME280;32333;55.844;-3.210;2023-01-27T11:59:48;101056.22;;;1.17;100.00
45872;BME280;32333;55.844;-3.210;2023-01-27T12:02:25;101047.26;;;1.22;100.00
45872;BME280;32333;55.844;-3.210;2023-01-27T12:04:59;101054.05;;;1.93;100.00
45872;BME280;32333;55.844;-3.210;2023-01-27T12:07:38;101048.58;;;1.54;100.00
45872;BME280;32333;55.844;-3.210;2023-01-27T12:10:23;101039.20;;;2.11;100.00
45872;BME280;32333;55.844;-3.210;2023-01-27T12:14:35;101034.53;;;1.96;100.00
45872;BME280;32333;55.844;-3.210;2023-01-27T12:17:04;101035.40;;;1.33;100.00
45872;BME280;32333;55.844;-3.210;2023-01-27T12:19:35;101032.26;;;1.72;100.00
45872;BME280;32333;55.844;-3.210;2023-01-27T12:22:12;101031.03;;;2.00;100.00
45872;BME280;32333;55.844;-3.210;2023-01-27T12:24:46;101024.50;;;2.46;100.00
45872;BME280;32333;55.844;-3.210;2023-01-27T12:27:21;101022.73;;;2.40;100.00
45872;BME280;32333;55.844;-3.210;2023-01-27T12:29:51;101021.30;;;2.44;100.00
45872;BME280;32333;55.844;-3.210;2023-01-27T12:32:22;101010.32;;;2.52;100.00
45872;BME280;32333;55.844;-3.210;2023-01-27T12:34:52;101011.39;;;1.85;100.00
45872;BME280;32333;55.844;-3.210;2023-01-27T12:37:25;101005.57;;;2.43;100.00
45872;BME280;32333;55.844;-3.210;2023-01-27T12:39:56;100999.45;;;2.41;100.00
45872;BME280;32333;55.844;-3.210;2023-01-27T12:44:40;100982.94;;;2.27;100.00
45872;BME280;32333;55.844;-3.210;2023-01-27T12:47:22;100981.99;;;2.40;100.00
45872;BME280;32333;55.844;-3.210;2023-01-27T12:49:51;100981.47;;;2.21;100.00
45872;BME280;32333;55.844;-3.210;2023-01-27T12:52:41;100980.24;;;2.12;100.00
45872;BME280;32333;55.844;-3.210;2023-01-27T12:55:27;100977.61;;;2.08;100.00
45872;BME280;32333;55.844;-3.210;2023-01-27T12:57:55;100976.88;;;2.33;100.00
45872;BME280;32333;55.844;-3.210;2023-01-27T13:00:22;100976.15;;;2.87;100.00
45872;BME280;32333;55.844;-3.210;2023-01-27T13:02:51;100975.38;;;2.71;100.00
45872;BME280;32333;55.844;-3.210;2023-01-27T13:05:23;100972.94;;;1.87;100.00
45872;BME280;32333;55.844;-3.210;2023-01-27T13:07:52;100971.27;;;1.92;100.00
45872;BME280;32333;55.844;-3.210;2023-01-27T13:10:23;100976.16;;;3.19;100.00
45872;BME280;32333;55.844;-3.210;2023-01-27T13:14:40;100970.55;;;2.39;100.00